Clearwater, FL (33761)

4:07 AM EST on January 27, 2015 (GMT -0500)
APRSWXNET Clearwater FL US | Change Station
CLOSE
Current Station
Personal Weather Station
Location: Clearwater, FL
Elevation: 109 ft
Nearby Weather Stations

Elev 109 ft 28.03 °N, 82.72 °W | Updated 34 minutes ago

Clear
Clear
51.0 °F
Feels Like 51.0 °F
N
0.0
Wind Variable Wind from WNW

Today
High -- | Low -- °F
--% Chance of Precip.
Yesterday
High -- | Low -- °F
Precip. -- in
7:20 AM 6:07 PM
First Quarter, 52% visible
Pressure 30.01 in
Visibility 10.0 miles
Clouds Clear
Dew Point 44.0 °F
Humidity 76%
Rainfall -999.00 in
Snow Depth Not available.
UV 0 out of 12
Pollen 6.00 out of 12
Air Quality Not available.
Flu Activity Not available.
METAR KPIE 270853Z AUTO 33008KT 10SM CLR 11/06 A3001 RMK AO2 SLP161 T01110061 53006

More Conditions Fewer Conditions

Pressure 30.01 in
Visibility 10.0 miles
Clouds Clear
Dew Point 44.0 °F
Humidity 76%
Rainfall -999.00 in
Snow Depth Not available.
UV 0 out of 12
Pollen 6.00 out of 12
Air Quality Not available.
Flu Activity Not available.
METAR KPIE 270853Z AUTO 33008KT 10SM CLR 11/06 A3001 RMK AO2 SLP161 T01110061 53006

More Conditions Fewer Conditions

10-Day Weather Forecast

Almanac

Astronomy

Jan. 27, 2015 Rise Set
Actual Time
Civil Twilight
Nautical Twilight
Astronomical Twilight
Moon
Length of Visible Light
Length of Day
Tomorrow will be .
, % of the Moon is Illuminated

Today's Extremes

State Highs State Lows

Community

WunderPhotos

Upload Photos

1,790,555 photos uploaded!

WunderBlogs® & News

Nearby

Air Quality

  Air Quality AQ Index Pollutant
Not available.

Snow Depth

Station Depth Elevation

Earthquake Activity

City Distance Mag. Time & Date
Minimum magnitude displayed is 2.5.

Coastal Water Temperatures

Place Temperature

Nearby Weather Stations